sensor_id;sensor_type;location;lat;lon;timestamp;P1;durP1;ratioP1;P2;durP2;ratioP2
16837;SDS011;19510;54.486;9.046;2023-07-16T00:00:46;3.45;;;1.50;;
16837;SDS011;19510;54.486;9.046;2023-07-16T00:03:12;2.60;;;1.40;;
16837;SDS011;19510;54.486;9.046;2023-07-16T00:05:39;1.90;;;1.00;;
16837;SDS011;19510;54.486;9.046;2023-07-16T00:08:05;3.70;;;1.50;;
16837;SDS011;19510;54.486;9.046;2023-07-16T00:10:33;6.20;;;1.50;;
16837;SDS011;19510;54.486;9.046;2023-07-16T00:13:02;4.72;;;1.40;;
16837;SDS011;19510;54.486;9.046;2023-07-16T00:15:29;4.28;;;1.02;;
16837;SDS011;19510;54.486;9.046;2023-07-16T00:17:55;4.53;;;1.20;;
16837;SDS011;19510;54.486;9.046;2023-07-16T00:20:21;4.65;;;1.30;;
16837;SDS011;19510;54.486;9.046;2023-07-16T00:22:48;4.35;;;1.45;;
16837;SDS011;19510;54.486;9.046;2023-07-16T00:25:14;4.00;;;1.20;;
16837;SDS011;19510;54.486;9.046;2023-07-16T00:27:40;4.18;;;1.10;;
16837;SDS011;19510;54.486;9.046;2023-07-16T00:30:07;2.63;;;1.25;;
16837;SDS011;19510;54.486;9.046;2023-07-16T00:32:33;5.07;;;1.23;;
16837;SDS011;19510;54.486;9.046;2023-07-16T00:34:59;3.13;;;1.00;;
16837;SDS011;19510;54.486;9.046;2023-07-16T00:37:25;4.78;;;0.95;;
16837;SDS011;19510;54.486;9.046;2023-07-16T00:39:51;4.32;;;1.15;;
16837;SDS011;19510;54.486;9.046;2023-07-16T00:42:17;6.80;;;1.20;;
16837;SDS011;19510;54.486;9.046;2023-07-16T00:44:42;2.28;;;1.20;;
16837;SDS011;19510;54.486;9.046;2023-07-16T00:47:08;3.33;;;1.33;;
16837;SDS011;19510;54.486;9.046;2023-07-16T00:49:37;2.72;;;1.27;;
16837;SDS011;19510;54.486;9.046;2023-07-16T00:52:04;4.78;;;1.25;;
16837;SDS011;19510;54.486;9.046;2023-07-16T00:54:34;4.03;;;1.45;;
16837;SDS011;19510;54.486;9.046;2023-07-16T00:57:00;8.27;;;1.45;;
16837;SDS011;19510;54.486;9.046;2023-07-16T00:59:26;4.78;;;1.50;;
16837;SDS011;19510;54.486;9.046;2023-07-16T01:01:51;2.63;;;1.27;;
16837;SDS011;19510;54.486;9.046;2023-07-16T01:04:17;4.43;;;1.17;;
16837;SDS011;19510;54.486;9.046;2023-07-16T01:06:45;5.70;;;1.30;;
16837;SDS011;19510;54.486;9.046;2023-07-16T01:09:16;2.47;;;1.17;;
16837;SDS011;19510;54.486;9.046;2023-07-16T01:11:44;3.67;;;1.35;;
16837;SDS011;19510;54.486;9.046;2023-07-16T01:14:10;3.85;;;1.25;;
16837;SDS011;19510;54.486;9.046;2023-07-16T01:16:43;9.13;;;1.75;;
16837;SDS011;19510;54.486;9.046;2023-07-16T01:19:09;5.80;;;1.48;;
16837;SDS011;19510;54.486;9.046;2023-07-16T01:29:31;1.83;;;0.90;;
16837;SDS011;19510;54.486;9.046;2023-07-16T01:32:03;4.30;;;1.45;;
16837;SDS011;19510;54.486;9.046;2023-07-16T01:34:31;2.83;;;1.40;;
16837;SDS011;19510;54.486;9.046;2023-07-16T01:36:59;6.05;;;1.40;;
16837;SDS011;19510;54.486;9.046;2023-07-16T01:39:26;4.93;;;1.80;;
16837;SDS011;19510;54.486;9.046;2023-07-16T01:41:52;10.55;;;1.88;;
16837;SDS011;19510;54.486;9.046;2023-07-16T01:44:18;4.00;;;1.88;;
16837;SDS011;19510;54.486;9.046;2023-07-16T01:46:43;3.08;;;1.70;;
16837;SDS011;19510;54.486;9.046;2023-07-16T01:49:14;8.20;;;1.90;;
16837;SDS011;19510;54.486;9.046;2023-07-16T01:51:39;5.60;;;1.90;;
16837;SDS011;19510;54.486;9.046;2023-07-16T01:54:05;6.63;;;1.80;;
16837;SDS011;19510;54.486;9.046;2023-07-16T01:56:31;5.13;;;2.10;;
16837;SDS011;19510;54.486;9.046;2023-07-16T01:58:58;4.90;;;1.60;;
16837;SDS011;19510;54.486;9.046;2023-07-16T02:01:23;3.13;;;1.70;;
16837;SDS011;19510;54.486;9.046;2023-07-16T02:03:49;6.70;;;2.15;;
16837;SDS011;19510;54.486;9.046;2023-07-16T02:06:17;5.07;;;1.70;;
16837;SDS011;19510;54.486;9.046;2023-07-16T02:08:43;3.45;;;1.58;;
16837;SDS011;19510;54.486;9.046;2023-07-16T02:11:09;5.75;;;1.52;;
16837;SDS011;19510;54.486;9.046;2023-07-16T02:13:36;6.35;;;1.40;;
16837;SDS011;19510;54.486;9.046;2023-07-16T02:16:02;6.32;;;1.63;;
16837;SDS011;19510;54.486;9.046;2023-07-16T02:18:28;5.88;;;1.70;;
16837;SDS011;19510;54.486;9.046;2023-07-16T02:20:54;4.78;;;1.88;;
16837;SDS011;19510;54.486;9.046;2023-07-16T02:23:19;5.80;;;2.00;;
16837;SDS011;19510;54.486;9.046;2023-07-16T02:25:45;4.78;;;2.10;;
16837;SDS011;19510;54.486;9.046;2023-07-16T02:28:10;4.80;;;1.77;;
16837;SDS011;19510;54.486;9.046;2023-07-16T02:30:37;6.70;;;2.75;;
16837;SDS011;19510;54.486;9.046;2023-07-16T02:33:05;8.32;;;2.10;;
16837;SDS011;19510;54.486;9.046;2023-07-16T02:35:30;9.18;;;2.40;;
16837;SDS011;19510;54.486;9.046;2023-07-16T02:37:56;10.93;;;2.17;;
16837;SDS011;19510;54.486;9.046;2023-07-16T02:40:26;7.93;;;2.28;;
16837;SDS011;19510;54.486;9.046;2023-07-16T02:42:52;5.03;;;1.90;;
16837;SDS011;19510;54.486;9.046;2023-07-16T02:45:18;9.77;;;2.00;;
16837;SDS011;19510;54.486;9.046;2023-07-16T02:47:44;6.03;;;2.22;;
16837;SDS011;19510;54.486;9.046;2023-07-16T02:50:09;7.68;;;2.10;;
16837;SDS011;19510;54.486;9.046;2023-07-16T02:52:35;7.63;;;2.28;;
16837;SDS011;19510;54.486;9.046;2023-07-16T02:55:01;6.90;;;2.30;;
16837;SDS011;19510;54.486;9.046;2023-07-16T02:57:28;6.18;;;2.42;;
16837;SDS011;19510;54.486;9.046;2023-07-16T02:59:54;7.45;;;2.30;;
16837;SDS011;19510;54.486;9.046;2023-07-16T03:02:20;7.38;;;2.60;;
16837;SDS011;19510;54.486;9.046;2023-07-16T03:04:46;8.13;;;2.38;;
16837;SDS011;19510;54.486;9.046;2023-07-16T03:07:11;6.63;;;2.30;;
16837;SDS011;19510;54.486;9.046;2023-07-16T03:09:37;6.20;;;2.42;;
16837;SDS011;19510;54.486;9.046;2023-07-16T03:12:02;11.18;;;2.50;;
16837;SDS011;19510;54.486;9.046;2023-07-16T03:14:28;12.43;;;2.40;;
16837;SDS011;19510;54.486;9.046;2023-07-16T03:16:54;8.32;;;2.60;;
16837;SDS011;19510;54.486;9.046;2023-07-16T03:19:20;10.77;;;2.65;;
16837;SDS011;19510;54.486;9.046;2023-07-16T03:21:45;4.53;;;1.80;;
16837;SDS011;19510;54.486;9.046;2023-07-16T03:24:11;8.55;;;2.60;;
16837;SDS011;19510;54.486;9.046;2023-07-16T03:26:37;7.10;;;1.98;;
16837;SDS011;19510;54.486;9.046;2023-07-16T03:29:03;7.50;;;2.65;;
16837;SDS011;19510;54.486;9.046;2023-07-16T03:31:28;8.82;;;2.35;;
16837;SDS011;19510;54.486;9.046;2023-07-16T03:33:54;10.90;;;2.90;;
16837;SDS011;19510;54.486;9.046;2023-07-16T03:36:20;8.10;;;2.85;;
16837;SDS011;19510;54.486;9.046;2023-07-16T03:38:45;7.35;;;2.22;;
16837;SDS011;19510;54.486;9.046;2023-07-16T03:41:11;9.43;;;2.28;;
16837;SDS011;19510;54.486;9.046;2023-07-16T03:43:37;5.65;;;2.08;;
16837;SDS011;19510;54.486;9.046;2023-07-16T03:46:02;6.82;;;2.33;;
16837;SDS011;19510;54.486;9.046;2023-07-16T03:48:28;7.05;;;2.30;;
16837;SDS011;19510;54.486;9.046;2023-07-16T03:50:54;7.45;;;2.53;;
16837;SDS011;19510;54.486;9.046;2023-07-16T03:53:19;10.02;;;2.38;;
16837;SDS011;19510;54.486;9.046;2023-07-16T03:55:45;8.60;;;2.17;;
16837;SDS011;19510;54.486;9.046;2023-07-16T03:58:11;10.98;;;2.63;;
16837;SDS011;19510;54.486;9.046;2023-07-16T04:00:40;4.22;;;2.00;;
16837;SDS011;19510;54.486;9.046;2023-07-16T04:03:06;8.52;;;2.70;;
16837;SDS011;19510;54.486;9.046;2023-07-16T04:05:34;7.65;;;2.38;;
16837;SDS011;19510;54.486;9.046;2023-07-16T04:07:59;7.85;;;2.30;;
16837;SDS011;19510;54.486;9.046;2023-07-16T04:10:25;5.95;;;2.53;;
16837;SDS011;19510;54.486;9.046;2023-07-16T04:12:51;6.18;;;2.28;;
16837;SDS011;19510;54.486;9.046;2023-07-16T04:15:17;5.82;;;2.67;;
16837;SDS011;19510;54.486;9.046;2023-07-16T04:17:46;7.50;;;2.30;;
16837;SDS011;19510;54.486;9.046;2023-07-16T04:20:11;9.90;;;2.55;;
16837;SDS011;19510;54.486;9.046;2023-07-16T04:22:37;6.63;;;2.20;;
16837;SDS011;19510;54.486;9.046;2023-07-16T04:25:03;8.55;;;2.70;;
16837;SDS011;19510;54.486;9.046;2023-07-16T04:27:29;7.53;;;2.45;;
16837;SDS011;19510;54.486;9.046;2023-07-16T04:29:54;10.90;;;3.65;;
16837;SDS011;19510;54.486;9.046;2023-07-16T04:32:20;7.97;;;2.67;;
16837;SDS011;19510;54.486;9.046;2023-07-16T04:34:46;11.40;;;3.28;;
16837;SDS011;19510;54.486;9.046;2023-07-16T04:37:12;11.57;;;2.70;;
16837;SDS011;19510;54.486;9.046;2023-07-16T04:39:37;4.68;;;2.25;;
16837;SDS011;19510;54.486;9.046;2023-07-16T04:42:03;4.72;;;2.25;;
16837;SDS011;19510;54.486;9.046;2023-07-16T04:44:29;9.55;;;2.83;;
16837;SDS011;19510;54.486;9.046;2023-07-16T04:46:55;7.55;;;2.40;;
16837;SDS011;19510;54.486;9.046;2023-07-16T04:49:20;6.80;;;1.92;;
16837;SDS011;19510;54.486;9.046;2023-07-16T04:51:46;6.45;;;2.30;;
16837;SDS011;19510;54.486;9.046;2023-07-16T04:54:12;6.35;;;2.05;;
16837;SDS011;19510;54.486;9.046;2023-07-16T04:56:38;9.82;;;2.10;;
16837;SDS011;19510;54.486;9.046;2023-07-16T04:59:03;6.00;;;1.90;;
16837;SDS011;19510;54.486;9.046;2023-07-16T05:01:31;5.68;;;2.13;;
16837;SDS011;19510;54.486;9.046;2023-07-16T05:03:57;6.13;;;1.90;;
16837;SDS011;19510;54.486;9.046;2023-07-16T05:06:22;6.22;;;2.47;;
16837;SDS011;19510;54.486;9.046;2023-07-16T05:08:48;10.45;;;2.10;;
16837;SDS011;19510;54.486;9.046;2023-07-16T05:11:14;8.85;;;2.17;;
16837;SDS011;19510;54.486;9.046;2023-07-16T05:13:41;5.93;;;2.33;;
16837;SDS011;19510;54.486;9.046;2023-07-16T05:16:07;3.90;;;1.65;;
16837;SDS011;19510;54.486;9.046;2023-07-16T05:18:33;7.05;;;1.95;;
16837;SDS011;19510;54.486;9.046;2023-07-16T05:20:58;3.50;;;1.90;;
16837;SDS011;19510;54.486;9.046;2023-07-16T05:23:24;3.60;;;1.90;;
16837;SDS011;19510;54.486;9.046;2023-07-16T05:25:50;4.85;;;2.00;;
16837;SDS011;19510;54.486;9.046;2023-07-16T05:28:16;7.53;;;2.58;;
16837;SDS011;19510;54.486;9.046;2023-07-16T05:30:43;7.65;;;3.03;;
16837;SDS011;19510;54.486;9.046;2023-07-16T05:33:09;10.48;;;3.33;;
16837;SDS011;19510;54.486;9.046;2023-07-16T05:35:35;8.48;;;3.70;;
16837;SDS011;19510;54.486;9.046;2023-07-16T05:38:01;13.27;;;5.25;;
16837;SDS011;19510;54.486;9.046;2023-07-16T05:40:26;9.90;;;3.55;;
16837;SDS011;19510;54.486;9.046;2023-07-16T05:42:52;6.38;;;2.97;;
16837;SDS011;19510;54.486;9.046;2023-07-16T05:45:20;13.85;;;3.42;;
16837;SDS011;19510;54.486;9.046;2023-07-16T05:47:45;8.05;;;3.00;;
16837;SDS011;19510;54.486;9.046;2023-07-16T05:50:11;10.32;;;3.15;;
16837;SDS011;19510;54.486;9.046;2023-07-16T05:52:37;12.57;;;3.17;;
16837;SDS011;19510;54.486;9.046;2023-07-16T05:55:02;12.23;;;3.10;;
16837;SDS011;19510;54.486;9.046;2023-07-16T05:57:28;11.48;;;3.40;;
16837;SDS011;19510;54.486;9.046;2023-07-16T05:59:54;9.82;;;2.97;;
16837;SDS011;19510;54.486;9.046;2023-07-16T06:02:19;11.27;;;3.80;;
16837;SDS011;19510;54.486;9.046;2023-07-16T06:04:45;8.65;;;3.33;;
16837;SDS011;19510;54.486;9.046;2023-07-16T06:07:12;7.53;;;2.72;;
16837;SDS011;19510;54.486;9.046;2023-07-16T06:09:38;7.03;;;3.35;;
16837;SDS011;19510;54.486;9.046;2023-07-16T06:12:04;8.63;;;3.20;;
16837;SDS011;19510;54.486;9.046;2023-07-16T06:14:32;6.45;;;2.28;;
16837;SDS011;19510;54.486;9.046;2023-07-16T06:16:58;13.80;;;3.03;;
16837;SDS011;19510;54.486;9.046;2023-07-16T06:19:23;10.43;;;2.70;;
16837;SDS011;19510;54.486;9.046;2023-07-16T06:21:52;10.30;;;2.92;;
16837;SDS011;19510;54.486;9.046;2023-07-16T06:24:20;8.07;;;2.88;;
16837;SDS011;19510;54.486;9.046;2023-07-16T06:26:46;10.75;;;3.33;;
16837;SDS011;19510;54.486;9.046;2023-07-16T06:29:15;6.43;;;3.17;;
16837;SDS011;19510;54.486;9.046;2023-07-16T06:31:53;7.43;;;2.90;;
16837;SDS011;19510;54.486;9.046;2023-07-16T06:34:23;7.93;;;3.38;;
16837;SDS011;19510;54.486;9.046;2023-07-16T06:36:49;9.80;;;3.22;;
16837;SDS011;19510;54.486;9.046;2023-07-16T06:39:15;9.23;;;3.75;;
16837;SDS011;19510;54.486;9.046;2023-07-16T06:41:41;8.90;;;3.15;;
16837;SDS011;19510;54.486;9.046;2023-07-16T06:44:07;15.30;;;4.53;;
16837;SDS011;19510;54.486;9.046;2023-07-16T06:46:32;8.23;;;3.65;;
16837;SDS011;19510;54.486;9.046;2023-07-16T06:48:58;11.63;;;3.83;;
16837;SDS011;19510;54.486;9.046;2023-07-16T06:51:24;12.27;;;3.60;;
16837;SDS011;19510;54.486;9.046;2023-07-16T06:53:50;11.80;;;3.85;;
16837;SDS011;19510;54.486;9.046;2023-07-16T06:56:15;9.93;;;3.40;;
16837;SDS011;19510;54.486;9.046;2023-07-16T06:58:41;12.48;;;3.45;;
16837;SDS011;19510;54.486;9.046;2023-07-16T07:01:07;6.85;;;3.15;;
16837;SDS011;19510;54.486;9.046;2023-07-16T07:03:33;12.13;;;3.30;;
16837;SDS011;19510;54.486;9.046;2023-07-16T07:06:01;10.10;;;3.10;;
16837;SDS011;19510;54.486;9.046;2023-07-16T07:08:30;8.73;;;3.13;;
16837;SDS011;19510;54.486;9.046;2023-07-16T07:10:56;7.45;;;2.80;;
16837;SDS011;19510;54.486;9.046;2023-07-16T07:13:24;11.18;;;3.50;;
16837;SDS011;19510;54.486;9.046;2023-07-16T07:15:49;7.80;;;3.05;;
16837;SDS011;19510;54.486;9.046;2023-07-16T07:18:15;9.20;;;3.65;;
16837;SDS011;19510;54.486;9.046;2023-07-16T07:20:41;8.02;;;4.10;;
16837;SDS011;19510;54.486;9.046;2023-07-16T07:23:09;10.20;;;4.05;;
16837;SDS011;19510;54.486;9.046;2023-07-16T07:25:37;13.05;;;4.18;;
16837;SDS011;19510;54.486;9.046;2023-07-16T07:28:03;8.52;;;3.45;;
16837;SDS011;19510;54.486;9.046;2023-07-16T07:30:29;7.78;;;3.47;;
16837;SDS011;19510;54.486;9.046;2023-07-16T07:32:54;6.78;;;3.53;;
16837;SDS011;19510;54.486;9.046;2023-07-16T07:35:20;7.75;;;3.33;;
16837;SDS011;19510;54.486;9.046;2023-07-16T07:37:46;9.63;;;3.80;;
16837;SDS011;19510;54.486;9.046;2023-07-16T07:40:14;10.18;;;3.25;;
16837;SDS011;19510;54.486;9.046;2023-07-16T07:42:40;10.02;;;3.40;;
16837;SDS011;19510;54.486;9.046;2023-07-16T07:45:06;28.13;;;5.55;;
16837;SDS011;19510;54.486;9.046;2023-07-16T07:47:41;12.85;;;3.33;;
16837;SDS011;19510;54.486;9.046;2023-07-16T07:50:07;11.68;;;3.50;;
16837;SDS011;19510;54.486;9.046;2023-07-16T07:52:33;11.10;;;3.38;;
16837;SDS011;19510;54.486;9.046;2023-07-16T07:54:59;9.75;;;3.00;;
16837;SDS011;19510;54.486;9.046;2023-07-16T07:57:24;7.93;;;3.38;;
16837;SDS011;19510;54.486;9.046;2023-07-16T07:59:50;8.15;;;3.80;;
16837;SDS011;19510;54.486;9.046;2023-07-16T08:02:21;9.38;;;3.17;;
16837;SDS011;19510;54.486;9.046;2023-07-16T08:04:49;8.57;;;3.03;;
16837;SDS011;19510;54.486;9.046;2023-07-16T08:07:16;11.20;;;2.97;;
16837;SDS011;19510;54.486;9.046;2023-07-16T08:09:42;9.43;;;3.47;;
16837;SDS011;19510;54.486;9.046;2023-07-16T08:12:08;9.10;;;3.10;;
16837;SDS011;19510;54.486;9.046;2023-07-16T08:14:34;9.15;;;3.28;;
16837;SDS011;19510;54.486;9.046;2023-07-16T08:16:59;6.82;;;3.30;;
16837;SDS011;19510;54.486;9.046;2023-07-16T08:19:26;5.93;;;2.47;;
16837;SDS011;19510;54.486;9.046;2023-07-16T08:21:51;5.68;;;2.40;;
16837;SDS011;19510;54.486;9.046;2023-07-16T08:24:17;9.75;;;2.90;;
16837;SDS011;19510;54.486;9.046;2023-07-16T08:26:43;13.10;;;3.42;;
16837;SDS011;19510;54.486;9.046;2023-07-16T08:29:09;6.43;;;3.08;;
16837;SDS011;19510;54.486;9.046;2023-07-16T08:31:35;11.10;;;3.28;;
16837;SDS011;19510;54.486;9.046;2023-07-16T08:34:01;9.75;;;3.15;;
16837;SDS011;19510;54.486;9.046;2023-07-16T08:36:28;6.15;;;2.72;;
16837;SDS011;19510;54.486;9.046;2023-07-16T08:38:54;7.20;;;2.90;;
16837;SDS011;19510;54.486;9.046;2023-07-16T08:41:20;11.38;;;3.03;;
16837;SDS011;19510;54.486;9.046;2023-07-16T08:43:46;11.82;;;3.35;;
16837;SDS011;19510;54.486;9.046;2023-07-16T08:46:17;5.43;;;2.72;;
16837;SDS011;19510;54.486;9.046;2023-07-16T08:48:44;9.55;;;3.75;;
16837;SDS011;19510;54.486;9.046;2023-07-16T08:51:13;10.77;;;2.90;;
16837;SDS011;19510;54.486;9.046;2023-07-16T08:53:41;6.05;;;2.60;;
16837;SDS011;19510;54.486;9.046;2023-07-16T08:56:06;9.73;;;2.55;;
16837;SDS011;19510;54.486;9.046;2023-07-16T08:58:35;8.00;;;2.78;;
16837;SDS011;19510;54.486;9.046;2023-07-16T09:01:05;6.78;;;2.97;;
16837;SDS011;19510;54.486;9.046;2023-07-16T09:03:35;10.55;;;2.90;;
16837;SDS011;19510;54.486;9.046;2023-07-16T09:08:30;10.77;;;2.58;;
16837;SDS011;19510;54.486;9.046;2023-07-16T09:10:56;11.18;;;2.83;;
16837;SDS011;19510;54.486;9.046;2023-07-16T09:13:24;5.20;;;2.30;;
16837;SDS011;19510;54.486;9.046;2023-07-16T09:15:53;7.68;;;2.70;;
16837;SDS011;19510;54.486;9.046;2023-07-16T09:18:21;3.53;;;2.33;;
16837;SDS011;19510;54.486;9.046;2023-07-16T09:20:48;9.80;;;2.33;;
16837;SDS011;19510;54.486;9.046;2023-07-16T09:23:19;8.00;;;2.88;;
16837;SDS011;19510;54.486;9.046;2023-07-16T09:25:44;12.43;;;2.80;;
16837;SDS011;19510;54.486;9.046;2023-07-16T09:28:10;4.97;;;2.38;;
16837;SDS011;19510;54.486;9.046;2023-07-16T09:30:37;6.60;;;2.50;;
16837;SDS011;19510;54.486;9.046;2023-07-16T09:33:16;7.25;;;3.53;;
16837;SDS011;19510;54.486;9.046;2023-07-16T09:35:51;8.48;;;3.00;;
16837;SDS011;19510;54.486;9.046;2023-07-16T09:38:17;13.07;;;2.90;;
16837;SDS011;19510;54.486;9.046;2023-07-16T09:40:43;7.45;;;3.17;;
16837;SDS011;19510;54.486;9.046;2023-07-16T09:43:12;8.18;;;2.55;;
16837;SDS011;19510;54.486;9.046;2023-07-16T09:45:39;8.80;;;2.78;;
16837;SDS011;19510;54.486;9.046;2023-07-16T09:48:06;5.63;;;2.40;;
16837;SDS011;19510;54.486;9.046;2023-07-16T09:50:32;7.20;;;2.90;;
16837;SDS011;19510;54.486;9.046;2023-07-16T09:52:59;11.77;;;2.58;;
16837;SDS011;19510;54.486;9.046;2023-07-16T09:55:28;7.78;;;2.90;;
16837;SDS011;19510;54.486;9.046;2023-07-16T09:58:00;8.00;;;2.25;;
16837;SDS011;19510;54.486;9.046;2023-07-16T10:00:28;7.43;;;2.65;;
16837;SDS011;19510;54.486;9.046;2023-07-16T10:02:58;5.88;;;2.97;;
16837;SDS011;19510;54.486;9.046;2023-07-16T10:05:25;9.32;;;2.60;;
16837;SDS011;19510;54.486;9.046;2023-07-16T10:07:53;5.90;;;2.60;;
16837;SDS011;19510;54.486;9.046;2023-07-16T10:13:24;7.38;;;2.90;;
16837;SDS011;19510;54.486;9.046;2023-07-16T10:15:59;9.75;;;2.72;;
16837;SDS011;19510;54.486;9.046;2023-07-16T10:18:29;6.35;;;2.67;;
16837;SDS011;19510;54.486;9.046;2023-07-16T10:21:03;6.05;;;3.00;;
16837;SDS011;19510;54.486;9.046;2023-07-16T10:23:37;9.30;;;2.60;;
16837;SDS011;19510;54.486;9.046;2023-07-16T10:26:09;6.20;;;2.50;;
16837;SDS011;19510;54.486;9.046;2023-07-16T10:28:37;10.13;;;2.78;;
16837;SDS011;19510;54.486;9.046;2023-07-16T10:31:04;10.43;;;3.85;;
16837;SDS011;19510;54.486;9.046;2023-07-16T10:33:33;6.82;;;3.10;;
16837;SDS011;19510;54.486;9.046;2023-07-16T10:36:03;7.43;;;2.85;;
16837;SDS011;19510;54.486;9.046;2023-07-16T10:38:29;7.30;;;2.85;;
16837;SDS011;19510;54.486;9.046;2023-07-16T10:40:55;11.90;;;3.33;;
16837;SDS011;19510;54.486;9.046;2023-07-16T10:43:21;8.18;;;3.30;;
16837;SDS011;19510;54.486;9.046;2023-07-16T10:45:50;5.55;;;2.50;;
16837;SDS011;19510;54.486;9.046;2023-07-16T10:48:16;7.22;;;3.30;;
16837;SDS011;19510;54.486;9.046;2023-07-16T10:50:41;9.45;;;3.67;;
16837;SDS011;19510;54.486;9.046;2023-07-16T10:53:07;5.18;;;2.90;;
16837;SDS011;19510;54.486;9.046;2023-07-16T10:55:33;6.15;;;2.80;;
16837;SDS011;19510;54.486;9.046;2023-07-16T10:58:03;18.65;;;4.85;;
16837;SDS011;19510;54.486;9.046;2023-07-16T11:00:31;9.07;;;2.97;;
16837;SDS011;19510;54.486;9.046;2023-07-16T11:02:57;7.95;;;2.80;;
16837;SDS011;19510;54.486;9.046;2023-07-16T11:05:23;6.00;;;2.83;;
16837;SDS011;19510;54.486;9.046;2023-07-16T11:07:49;5.45;;;2.67;;
16837;SDS011;19510;54.486;9.046;2023-07-16T11:10:15;5.85;;;3.35;;
16837;SDS011;19510;54.486;9.046;2023-07-16T11:12:41;5.35;;;2.67;;
16837;SDS011;19510;54.486;9.046;2023-07-16T11:15:08;8.80;;;2.70;;
16837;SDS011;19510;54.486;9.046;2023-07-16T11:17:36;8.80;;;3.17;;
16837;SDS011;19510;54.486;9.046;2023-07-16T11:20:03;8.02;;;2.83;;
16837;SDS011;19510;54.486;9.046;2023-07-16T11:22:31;9.68;;;2.65;;
16837;SDS011;19510;54.486;9.046;2023-07-16T11:24:58;10.00;;;3.40;;
16837;SDS011;19510;54.486;9.046;2023-07-16T11:27:26;7.75;;;3.15;;
16837;SDS011;19510;54.486;9.046;2023-07-16T11:29:56;9.73;;;2.97;;
16837;SDS011;19510;54.486;9.046;2023-07-16T11:34:54;8.90;;;2.70;;
16837;SDS011;19510;54.486;9.046;2023-07-16T11:37:21;11.00;;;3.15;;
16837;SDS011;19510;54.486;9.046;2023-07-16T11:39:49;5.43;;;2.60;;
16837;SDS011;19510;54.486;9.046;2023-07-16T11:42:22;5.25;;;2.67;;
16837;SDS011;19510;54.486;9.046;2023-07-16T11:44:49;10.80;;;2.53;;
16837;SDS011;19510;54.486;9.046;2023-07-16T11:47:15;7.15;;;2.67;;
16837;SDS011;19510;54.486;9.046;2023-07-16T11:49:41;6.63;;;2.75;;
16837;SDS011;19510;54.486;9.046;2023-07-16T11:52:07;10.13;;;2.55;;
16837;SDS011;19510;54.486;9.046;2023-07-16T11:54:32;12.50;;;3.22;;
16837;SDS011;19510;54.486;9.046;2023-07-16T11:56:58;4.22;;;2.28;;
16837;SDS011;19510;54.486;9.046;2023-07-16T11:59:24;5.95;;;2.70;;
16837;SDS011;19510;54.486;9.046;2023-07-16T12:01:50;9.90;;;2.17;;
16837;SDS011;19510;54.486;9.046;2023-07-16T12:04:16;6.28;;;2.50;;
16837;SDS011;19510;54.486;9.046;2023-07-16T12:06:42;7.25;;;2.72;;
16837;SDS011;19510;54.486;9.046;2023-07-16T12:09:08;4.13;;;2.55;;
16837;SDS011;19510;54.486;9.046;2023-07-16T12:11:34;9.23;;;3.15;;
16837;SDS011;19510;54.486;9.046;2023-07-16T12:14:00;6.72;;;2.83;;
16837;SDS011;19510;54.486;9.046;2023-07-16T12:16:26;6.97;;;2.80;;
16837;SDS011;19510;54.486;9.046;2023-07-16T12:18:51;6.93;;;2.47;;
16837;SDS011;19510;54.486;9.046;2023-07-16T12:21:17;7.18;;;2.85;;
16837;SDS011;19510;54.486;9.046;2023-07-16T12:23:43;6.63;;;3.00;;
16837;SDS011;19510;54.486;9.046;2023-07-16T12:26:08;7.50;;;2.95;;
16837;SDS011;19510;54.486;9.046;2023-07-16T12:28:34;10.43;;;2.92;;
16837;SDS011;19510;54.486;9.046;2023-07-16T12:31:00;7.82;;;2.75;;
16837;SDS011;19510;54.486;9.046;2023-07-16T12:33:26;7.50;;;2.65;;
16837;SDS011;19510;54.486;9.046;2023-07-16T12:35:51;7.85;;;2.92;;
16837;SDS011;19510;54.486;9.046;2023-07-16T12:38:17;4.70;;;2.53;;
16837;SDS011;19510;54.486;9.046;2023-07-16T12:40:44;7.85;;;3.05;;
16837;SDS011;19510;54.486;9.046;2023-07-16T12:43:10;7.30;;;3.15;;
16837;SDS011;19510;54.486;9.046;2023-07-16T12:45:35;6.80;;;2.88;;
16837;SDS011;19510;54.486;9.046;2023-07-16T12:48:02;8.20;;;3.10;;
16837;SDS011;19510;54.486;9.046;2023-07-16T12:50:28;7.20;;;3.58;;
16837;SDS011;19510;54.486;9.046;2023-07-16T12:52:54;7.75;;;3.63;;
16837;SDS011;19510;54.486;9.046;2023-07-16T12:55:20;13.50;;;3.55;;
16837;SDS011;19510;54.486;9.046;2023-07-16T12:57:48;10.13;;;3.20;;
16837;SDS011;19510;54.486;9.046;2023-07-16T13:00:14;8.35;;;3.22;;
16837;SDS011;19510;54.486;9.046;2023-07-16T13:02:43;10.10;;;3.03;;
16837;SDS011;19510;54.486;9.046;2023-07-16T13:05:08;7.75;;;2.58;;
16837;SDS011;19510;54.486;9.046;2023-07-16T13:07:34;10.10;;;3.10;;
16837;SDS011;19510;54.486;9.046;2023-07-16T13:10:00;8.38;;;3.53;;
16837;SDS011;19510;54.486;9.046;2023-07-16T13:12:25;6.55;;;3.20;;
16837;SDS011;19510;54.486;9.046;2023-07-16T13:14:51;7.15;;;3.30;;
16837;SDS011;19510;54.486;9.046;2023-07-16T13:17:17;6.70;;;2.85;;
16837;SDS011;19510;54.486;9.046;2023-07-16T13:19:44;7.47;;;2.88;;
16837;SDS011;19510;54.486;9.046;2023-07-16T13:22:10;7.28;;;3.10;;
16837;SDS011;19510;54.486;9.046;2023-07-16T13:24:36;6.35;;;2.60;;
16837;SDS011;19510;54.486;9.046;2023-07-16T13:27:02;8.57;;;3.08;;
16837;SDS011;19510;54.486;9.046;2023-07-16T13:29:28;6.97;;;2.97;;
16837;SDS011;19510;54.486;9.046;2023-07-16T13:31:53;9.20;;;3.20;;
16837;SDS011;19510;54.486;9.046;2023-07-16T13:34:19;9.10;;;3.05;;
16837;SDS011;19510;54.486;9.046;2023-07-16T13:36:45;5.93;;;2.97;;
16837;SDS011;19510;54.486;9.046;2023-07-16T13:39:11;7.85;;;3.05;;
16837;SDS011;19510;54.486;9.046;2023-07-16T13:41:38;7.20;;;3.00;;
16837;SDS011;19510;54.486;9.046;2023-07-16T13:44:04;6.35;;;3.28;;
16837;SDS011;19510;54.486;9.046;2023-07-16T13:46:30;9.77;;;3.22;;
16837;SDS011;19510;54.486;9.046;2023-07-16T13:48:56;4.97;;;2.78;;
16837;SDS011;19510;54.486;9.046;2023-07-16T13:51:22;7.82;;;3.33;;
16837;SDS011;19510;54.486;9.046;2023-07-16T13:53:48;6.57;;;3.17;;
16837;SDS011;19510;54.486;9.046;2023-07-16T13:56:14;6.47;;;3.00;;
16837;SDS011;19510;54.486;9.046;2023-07-16T13:58:39;9.25;;;3.60;;
16837;SDS011;19510;54.486;9.046;2023-07-16T14:01:05;11.20;;;3.50;;
16837;SDS011;19510;54.486;9.046;2023-07-16T14:03:31;7.72;;;2.97;;
16837;SDS011;19510;54.486;9.046;2023-07-16T14:05:57;7.38;;;3.17;;
16837;SDS011;19510;54.486;9.046;2023-07-16T14:08:22;6.47;;;2.83;;
16837;SDS011;19510;54.486;9.046;2023-07-16T14:10:48;7.55;;;2.80;;
16837;SDS011;19510;54.486;9.046;2023-07-16T14:13:14;8.68;;;2.80;;
16837;SDS011;19510;54.486;9.046;2023-07-16T14:15:41;7.75;;;3.30;;
16837;SDS011;19510;54.486;9.046;2023-07-16T14:18:07;9.02;;;3.17;;
16837;SDS011;19510;54.486;9.046;2023-07-16T14:20:35;10.18;;;3.25;;
16837;SDS011;19510;54.486;9.046;2023-07-16T14:23:00;6.95;;;2.88;;
16837;SDS011;19510;54.486;9.046;2023-07-16T14:25:26;9.95;;;3.22;;
16837;SDS011;19510;54.486;9.046;2023-07-16T14:27:52;6.10;;;3.15;;
16837;SDS011;19510;54.486;9.046;2023-07-16T14:30:17;5.72;;;2.97;;
16837;SDS011;19510;54.486;9.046;2023-07-16T14:32:43;6.88;;;3.17;;
16837;SDS011;19510;54.486;9.046;2023-07-16T14:35:09;12.13;;;3.97;;
16837;SDS011;19510;54.486;9.046;2023-07-16T14:37:36;14.52;;;4.20;;
16837;SDS011;19510;54.486;9.046;2023-07-16T14:40:02;9.38;;;3.45;;
16837;SDS011;19510;54.486;9.046;2023-07-16T14:42:30;10.18;;;3.85;;
16837;SDS011;19510;54.486;9.046;2023-07-16T14:44:56;10.45;;;3.08;;
16837;SDS011;19510;54.486;9.046;2023-07-16T14:47:22;13.50;;;4.65;;
16837;SDS011;19510;54.486;9.046;2023-07-16T14:49:47;9.13;;;3.70;;
16837;SDS011;19510;54.486;9.046;2023-07-16T14:52:13;6.90;;;3.40;;
16837;SDS011;19510;54.486;9.046;2023-07-16T14:54:39;8.02;;;3.55;;
16837;SDS011;19510;54.486;9.046;2023-07-16T14:57:05;10.82;;;3.80;;